Time;durP1;ratioP1;P1;durP2;ratioP2;P2;SDS_P1;SDS_P2;PMS_P1;PMS_P2;Temp;Humidity;BMP_temperature;BMP_pressure;BME280_temperature;BME280_humidity;BME280_pressure;Samples;Min_cycle;Max_cycle;Signal;HPM_P1;HPM_P2
2023/05/18 00:01:06;;;;;;;2.13;1.10;;;6.90;99.90;;;;;;5073642;28;20456;-80
2023/05/18 00:03:32;;;;;;;0.60;0.60;;;6.90;99.90;;;;;;5073069;28;20546;-80
2023/05/18 00:06:03;;;;;;;1.53;1.03;;;6.90;99.90;;;;;;5073252;28;20824;-80
2023/05/18 00:08:30;;;;;;;5.97;1.07;;;6.80;99.90;;;;;;5073301;28;20437;-80
2023/05/18 00:10:56;;;;;;;6.20;1.03;;;6.80;99.90;;;;;;5073177;28;20930;-80
2023/05/18 00:13:23;;;;;;;0.50;0.50;;;6.80;99.90;;;;;;5073056;28;20523;-81
2023/05/18 00:15:51;;;;;;;3.80;0.93;;;6.80;99.90;;;;;;5073469;28;20813;-80
2023/05/18 00:18:22;;;;;;;0.70;0.50;;;6.70;99.90;;;;;;5073219;28;20828;-80
2023/05/18 00:20:50;;;;;;;1.83;1.23;;;6.70;99.90;;;;;;5073389;28;20472;-80
2023/05/18 00:23:17;;;;;;;5.70;1.13;;;6.70;99.90;;;;;;5073591;28;20470;-80
2023/05/18 00:25:44;;;;;;;7.00;0.93;;;6.70;99.90;;;;;;5073445;28;20461;-80
2023/05/18 00:28:11;;;;;;;0.90;0.90;;;6.70;99.90;;;;;;5073404;28;20458;-81
2023/05/18 00:30:38;;;;;;;1.30;0.80;;;6.60;99.90;;;;;;5073309;28;21039;-81
2023/05/18 00:33:06;;;;;;;1.03;1.03;;;6.60;99.90;;;;;;5072934;28;20476;-81
2023/05/18 00:35:33;;;;;;;1.70;1.40;;;6.60;99.90;;;;;;5072989;28;20461;-81
2023/05/18 00:37:59;;;;;;;2.60;1.23;;;6.60;99.90;;;;;;5073294;28;20453;-81
2023/05/18 00:40:28;;;;;;;3.23;2.07;;;6.50;99.90;;;;;;5072775;28;20816;-81
2023/05/18 00:42:55;;;;;;;2.73;1.30;;;6.50;99.90;;;;;;5073174;28;20438;-81
2023/05/18 00:45:25;;;;;;;1.87;1.37;;;6.60;99.90;;;;;;5073850;28;20876;-81
2023/05/18 00:47:55;;;;;;;2.50;1.40;;;6.60;99.90;;;;;;5077354;28;20457;-81
2023/05/18 00:50:23;;;;;;;3.17;1.77;;;6.60;99.90;;;;;;5077278;28;20445;-81
2023/05/18 00:52:51;;;;;;;4.60;1.43;;;6.60;99.90;;;;;;5076628;28;20441;-81
2023/05/18 00:55:18;;;;;;;3.73;1.50;;;6.60;99.90;;;;;;5076998;28;20442;-81
2023/05/18 00:57:48;;;;;;;4.13;1.43;;;6.60;99.90;;;;;;5076915;28;20959;-81
2023/05/18 01:00:19;;;;;;;3.07;1.40;;;6.60;99.90;;;;;;5077032;28;20489;-81
2023/05/18 01:02:46;;;;;;;2.60;1.37;;;6.50;99.90;;;;;;5076831;28;20488;-81
2023/05/18 01:05:13;;;;;;;1.97;1.30;;;6.50;99.90;;;;;;5077029;28;20455;-81
2023/05/18 01:07:44;;;;;;;2.70;1.07;;;6.50;99.90;;;;;;5077002;28;20456;-81
2023/05/18 01:10:15;;;;;;;3.80;1.87;;;6.50;99.90;;;;;;5077043;28;20413;-81
2023/05/18 01:12:50;;;;;;;1.60;0.80;;;6.50;99.90;;;;;;5076912;28;20801;-81
2023/05/18 01:15:19;;;;;;;6.60;3.10;;;6.50;99.90;;;;;;5076812;28;20437;-81
2023/05/18 01:18:03;;;;;;;1.53;0.83;;;6.50;99.90;;;;;;5076743;28;20445;-81
2023/05/18 01:20:36;;;;;;;6.50;1.70;;;6.50;99.90;;;;;;5076402;28;20476;-81
2023/05/18 01:23:53;;;;;;;1.47;0.97;;;6.50;99.90;;;;;;5076643;28;20477;-81
2023/05/18 01:26:36;;;;;;;1.73;1.63;;;6.50;99.90;;;;;;5076651;28;20430;-81
2023/05/18 01:29:06;;;;;;;2.00;0.80;;;6.40;99.90;;;;;;5076764;28;20426;-81
2023/05/18 01:31:35;;;;;;;1.90;0.97;;;6.40;99.90;;;;;;5077179;28;20481;-81
2023/05/18 01:34:06;;;;;;;1.03;1.00;;;6.40;99.90;;;;;;5076056;28;20465;-81
2023/05/18 01:36:37;;;;;;;2.00;1.00;;;6.20;99.90;;;;;;5076453;28;20429;-81
2023/05/18 01:39:04;;;;;;;1.87;1.33;;;6.40;99.90;;;;;;5076424;28;20495;-81
2023/05/18 01:41:38;;;;;;;3.80;1.13;;;6.40;99.90;;;;;;5076299;28;20449;-81
2023/05/18 01:44:16;;;;;;;0.53;0.53;;;6.40;99.90;;;;;;5077021;28;20472;-81
2023/05/18 01:46:51;;;;;;;4.10;1.60;;;6.40;99.90;;;;;;5075685;28;20445;-81
2023/05/18 01:49:27;;;;;;;3.17;1.40;;;6.40;99.90;;;;;;5075966;28;20924;-81
2023/05/18 01:51:56;;;;;;;1.90;0.80;;;6.40;99.90;;;;;;5076248;28;20440;-81
2023/05/18 01:54:23;;;;;;;0.97;0.87;;;6.40;99.90;;;;;;5075970;28;20469;-81
2023/05/18 01:56:54;;;;;;;0.50;0.50;;;6.30;99.90;;;;;;5076245;28;20448;-81
2023/05/18 01:59:22;;;;;;;1.00;0.80;;;6.40;99.90;;;;;;5075924;28;20905;-81
2023/05/18 02:01:49;;;;;;;1.47;1.37;;;6.30;99.90;;;;;;5075997;28;20473;-81
2023/05/18 02:04:16;;;;;;;1.40;0.90;;;6.30;99.90;;;;;;5075425;28;20481;-81
2023/05/18 02:06:43;;;;;;;2.53;1.50;;;6.20;99.90;;;;;;5075899;28;20504;-81
2023/05/18 02:09:12;;;;;;;0.97;0.50;;;6.20;99.90;;;;;;5075554;28;20961;-81
2023/05/18 02:11:41;;;;;;;2.50;1.00;;;6.20;99.90;;;;;;5075782;28;20465;-81
2023/05/18 02:14:10;;;;;;;5.00;2.27;;;6.10;99.90;;;;;;5075591;28;20493;-81
2023/05/18 02:16:36;;;;;;;2.30;0.90;;;6.10;99.90;;;;;;5075701;28;20448;-81
2023/05/18 02:19:04;;;;;;;2.37;0.80;;;6.10;99.90;;;;;;5075460;28;20430;-81
2023/05/18 02:21:36;;;;;;;2.97;1.07;;;6.10;99.90;;;;;;5075567;28;20531;-81
2023/05/18 02:24:03;;;;;;;6.20;1.10;;;6.10;99.90;;;;;;5075548;28;20564;-81
2023/05/18 02:26:33;;;;;;;0.90;0.80;;;6.10;99.90;;;;;;5075458;28;20536;-81
2023/05/18 02:29:05;;;;;;;1.13;1.00;;;6.00;99.90;;;;;;5075474;28;20799;-81
2023/05/18 02:31:34;;;;;;;0.73;0.73;;;6.10;99.90;;;;;;5075469;28;20430;-81
2023/05/18 02:34:04;;;;;;;1.20;1.10;;;6.00;99.90;;;;;;5075301;28;20473;-81
2023/05/18 02:36:35;;;;;;;2.87;1.13;;;6.00;99.90;;;;;;5075331;28;20528;-81
2023/05/18 02:39:03;;;;;;;4.10;1.20;;;6.00;99.90;;;;;;5075349;28;20533;-81
2023/05/18 02:41:30;;;;;;;1.57;1.00;;;6.00;99.90;;;;;;5074809;28;20484;-81
2023/05/18 02:43:57;;;;;;;0.93;0.70;;;6.00;99.90;;;;;;5074842;28;20972;-81
2023/05/18 02:46:23;;;;;;;2.60;0.83;;;6.00;99.90;;;;;;5074836;28;20945;-81
2023/05/18 02:48:52;;;;;;;2.03;1.07;;;6.00;99.90;;;;;;5075288;28;20457;-81
2023/05/18 02:51:21;;;;;;;1.80;1.10;;;6.00;99.90;;;;;;5075027;28;20503;-81
2023/05/18 02:53:48;;;;;;;2.80;1.50;;;6.00;99.90;;;;;;5074838;28;20465;-81
2023/05/18 02:56:18;;;;;;;2.00;1.40;;;6.00;99.90;;;;;;5074921;28;20464;-82
2023/05/18 02:58:46;;;;;;;2.80;0.90;;;6.00;99.90;;;;;;5074881;28;20445;-81
2023/05/18 03:01:12;;;;;;;2.30;0.90;;;6.00;99.90;;;;;;5074774;28;20507;-81
2023/05/18 03:03:40;;;;;;;1.70;0.60;;;6.00;99.90;;;;;;5074444;28;20494;-81
2023/05/18 03:06:09;;;;;;;2.80;1.10;;;6.00;99.90;;;;;;5074775;28;20448;-81
2023/05/18 03:08:36;;;;;;;2.00;1.00;;;5.90;99.90;;;;;;5074186;28;20548;-81
2023/05/18 03:11:03;;;;;;;1.70;1.13;;;6.00;99.90;;;;;;5074639;28;20449;-81
2023/05/18 03:13:30;;;;;;;0.90;0.80;;;5.90;99.90;;;;;;5074537;28;20473;-81
2023/05/18 03:15:57;;;;;;;1.33;0.63;;;6.00;99.90;;;;;;5074230;28;20957;-81
2023/05/18 03:18:24;;;;;;;2.20;1.43;;;5.90;99.90;;;;;;5074496;28;20942;-81
2023/05/18 03:20:51;;;;;;;1.67;0.90;;;5.90;99.90;;;;;;5074260;28;21055;-81
2023/05/18 03:23:20;;;;;;;1.23;1.10;;;5.90;99.90;;;;;;5074208;28;20504;-81
2023/05/18 03:25:52;;;;;;;1.13;0.93;;;5.80;99.90;;;;;;5075145;28;20456;-81
2023/05/18 03:28:19;;;;;;;1.43;1.00;;;5.90;99.90;;;;;;5074315;28;20491;-81
2023/05/18 03:30:46;;;;;;;1.90;1.00;;;5.80;99.90;;;;;;5074225;28;20446;-81
2023/05/18 03:33:12;;;;;;;1.53;1.20;;;5.80;99.90;;;;;;5074100;28;20470;-81
2023/05/18 03:35:39;;;;;;;0.70;0.40;;;5.80;99.90;;;;;;5074155;28;20874;-81
2023/05/18 03:38:06;;;;;;;2.80;1.50;;;5.80;99.90;;;;;;5074126;28;20526;-81
2023/05/18 03:40:34;;;;;;;12.30;1.30;;;5.80;99.90;;;;;;5074017;28;20485;-81
2023/05/18 03:43:04;;;;;;;1.70;1.17;;;5.80;99.90;;;;;;5073659;28;20985;-81
2023/05/18 03:45:31;;;;;;;1.07;0.67;;;5.80;99.90;;;;;;5073648;28;20949;-81
2023/05/18 03:47:58;;;;;;;1.47;1.37;;;5.80;99.90;;;;;;5073686;28;20487;-81
2023/05/18 03:50:24;;;;;;;1.60;0.60;;;5.70;99.90;;;;;;5073652;28;20461;-81
2023/05/18 03:52:54;;;;;;;0.90;0.70;;;5.80;99.90;;;;;;5074047;28;20444;-81
2023/05/18 03:55:21;;;;;;;1.37;0.73;;;5.80;99.90;;;;;;5073484;28;20454;-81
2023/05/18 03:57:49;;;;;;;8.20;1.30;;;5.80;99.90;;;;;;5073751;28;20446;-81
2023/05/18 04:00:16;;;;;;;1.90;0.97;;;5.80;99.90;;;;;;5073372;28;20658;-81
2023/05/18 04:02:43;;;;;;;1.17;0.70;;;5.90;99.90;;;;;;5073243;28;21011;-82
2023/05/18 04:05:11;;;;;;;0.93;0.70;;;5.90;99.90;;;;;;5073451;28;20831;-81
2023/05/18 04:07:42;;;;;;;1.20;0.90;;;5.90;99.90;;;;;;5073630;28;20445;-81
2023/05/18 04:10:10;;;;;;;1.03;1.00;;;5.90;99.90;;;;;;5073310;28;20808;-81
2023/05/18 04:12:38;;;;;;;0.80;0.80;;;6.00;99.90;;;;;;5073598;28;20526;-81
2023/05/18 04:15:07;;;;;;;0.70;0.70;;;6.00;99.90;;;;;;5073497;28;20504;-81
2023/05/18 04:17:34;;;;;;;1.83;0.80;;;6.10;99.90;;;;;;5073214;28;20967;-81
2023/05/18 04:20:05;;;;;;;1.43;0.93;;;6.10;99.90;;;;;;5072629;28;20450;-81
2023/05/18 04:22:32;;;;;;;1.73;1.47;;;6.20;99.90;;;;;;5073518;28;20461;-81
2023/05/18 04:25:00;;;;;;;1.07;0.97;;;6.20;99.90;;;;;;5073357;28;20475;-81
2023/05/18 04:27:28;;;;;;;1.00;0.80;;;6.20;99.90;;;;;;5073634;28;20487;-81
2023/05/18 04:29:55;;;;;;;1.60;1.03;;;6.20;99.90;;;;;;5073372;28;20453;-81
2023/05/18 04:32:25;;;;;;;2.90;1.00;;;6.30;99.90;;;;;;5073361;28;20453;-81
2023/05/18 04:34:53;;;;;;;1.17;0.90;;;6.40;99.90;;;;;;5073303;28;20570;-81
2023/05/18 04:37:21;;;;;;;2.20;0.93;;;6.40;99.90;;;;;;5073555;28;20877;-81
2023/05/18 04:39:47;;;;;;;1.60;1.00;;;6.50;99.90;;;;;;5073313;28;20804;-81
2023/05/18 04:42:17;;;;;;;3.10;0.70;;;6.50;99.90;;;;;;5072940;28;20848;-81
2023/05/18 04:44:44;;;;;;;1.73;1.10;;;6.60;99.90;;;;;;5073228;28;20497;-81
2023/05/18 04:47:11;;;;;;;2.27;1.17;;;6.60;99.90;;;;;;5073173;28;20461;-81
2023/05/18 04:49:39;;;;;;;2.20;2.10;;;6.70;99.90;;;;;;5073780;28;20785;-81
2023/05/18 04:52:09;;;;;;;1.07;0.90;;;6.70;99.90;;;;;;5072853;28;20449;-81
2023/05/18 04:54:35;;;;;;;1.40;1.07;;;6.80;99.90;;;;;;5073204;28;20461;-81
2023/05/18 04:57:03;;;;;;;11.60;1.87;;;6.90;99.90;;;;;;5073584;28;20450;-81
2023/05/18 04:59:29;;;;;;;3.63;1.10;;;6.90;99.90;;;;;;5073111;28;20456;-81
2023/05/18 05:01:56;;;;;;;4.37;0.97;;;7.00;99.90;;;;;;5072646;28;20874;-81
2023/05/18 05:04:23;;;;;;;1.00;0.80;;;7.00;99.90;;;;;;5072491;28;20477;-81
2023/05/18 05:06:51;;;;;;;0.80;0.80;;;7.10;99.90;;;;;;5073037;28;20533;-81
2023/05/18 05:09:18;;;;;;;0.70;0.60;;;7.10;99.90;;;;;;5073073;28;20453;-81
2023/05/18 05:11:45;;;;;;;3.37;1.10;;;7.20;99.90;;;;;;5072962;28;20456;-81
2023/05/18 05:14:12;;;;;;;2.00;1.23;;;7.20;99.90;;;;;;5072892;28;20561;-81
2023/05/18 05:16:39;;;;;;;1.47;1.00;;;7.30;99.90;;;;;;5072875;28;20820;-81
2023/05/18 05:19:06;;;;;;;1.33;1.23;;;7.30;99.90;;;;;;5072671;28;20434;-81
2023/05/18 05:21:33;;;;;;;1.90;1.17;;;7.40;99.90;;;;;;5072550;28;21069;-81
2023/05/18 05:24:03;;;;;;;4.03;1.40;;;7.50;99.90;;;;;;5072830;28;20876;-81
2023/05/18 05:26:30;;;;;;;1.93;1.00;;;7.60;99.90;;;;;;5072866;28;20866;-81
2023/05/18 05:28:57;;;;;;;1.40;0.83;;;7.60;99.90;;;;;;5073397;28;20460;-81
2023/05/18 05:31:23;;;;;;;1.27;1.17;;;7.70;99.90;;;;;;5073664;28;20445;-81
2023/05/18 05:33:50;;;;;;;3.43;0.97;;;7.70;99.90;;;;;;5076448;28;20477;-81
2023/05/18 05:36:17;;;;;;;1.43;1.00;;;7.80;99.90;;;;;;5076169;28;20960;-81
2023/05/18 05:38:44;;;;;;;1.43;1.10;;;7.90;99.90;;;;;;5076115;28;20800;-81
2023/05/18 05:41:12;;;;;;;1.93;1.17;;;8.00;99.90;;;;;;5076494;28;20481;-81
2023/05/18 05:43:39;;;;;;;1.63;1.23;;;8.10;99.90;;;;;;5075913;28;21010;-81
2023/05/18 05:46:05;;;;;;;1.57;1.43;;;8.20;99.90;;;;;;5075993;28;20452;-81
2023/05/18 05:48:32;;;;;;;2.90;1.30;;;8.30;99.90;;;;;;5076279;28;20445;-81
2023/05/18 05:50:59;;;;;;;2.20;1.30;;;8.50;99.90;;;;;;5076039;28;20460;-81
2023/05/18 05:53:28;;;;;;;1.40;1.30;;;8.60;99.90;;;;;;5076111;28;20469;-81
2023/05/18 05:55:55;;;;;;;0.70;0.70;;;8.70;99.90;;;;;;5075815;28;21024;-81
2023/05/18 05:58:23;;;;;;;4.00;1.00;;;8.80;99.90;;;;;;5075746;28;20455;-81
2023/05/18 06:00:50;;;;;;;1.87;0.83;;;8.90;99.90;;;;;;5075654;28;20484;-81
2023/05/18 06:03:17;;;;;;;1.17;1.07;;;9.20;99.90;;;;;;5075519;28;20858;-81
2023/05/18 06:05:44;;;;;;;0.80;0.80;;;9.40;99.90;;;;;;5075659;28;20453;-81
2023/05/18 06:08:11;;;;;;;0.80;0.80;;;9.60;99.90;;;;;;5075636;28;20441;-81
2023/05/18 06:10:40;;;;;;;2.80;0.80;;;9.80;99.90;;;;;;5075839;28;20457;-80
2023/05/18 06:13:07;;;;;;;1.00;1.00;;;10.00;99.90;;;;;;5075424;28;20480;-81
2023/05/18 06:15:35;;;;;;;1.20;1.10;;;10.20;99.90;;;;;;5075500;28;20810;-82
2023/05/18 06:18:01;;;;;;;6.20;1.33;;;10.50;99.90;;;;;;5075756;28;20449;-82
2023/05/18 06:20:29;;;;;;;1.87;1.27;;;10.70;99.90;;;;;;5075926;28;20453;-82
2023/05/18 06:22:56;;;;;;;3.20;1.23;;;10.90;99.90;;;;;;5075125;28;20487;-81
2023/05/18 06:25:23;;;;;;;1.67;1.20;;;11.20;99.90;;;;;;5075674;28;20445;-81
2023/05/18 06:27:52;;;;;;;0.93;0.93;;;11.60;99.90;;;;;;5075592;28;20494;-81
2023/05/18 06:30:19;;;;;;;0.90;0.90;;;11.90;99.90;;;;;;5075447;28;20886;-81
2023/05/18 06:32:47;;;;;;;1.50;1.07;;;12.20;99.90;;;;;;5075470;28;20483;-80
2023/05/18 06:35:14;;;;;;;0.80;0.73;;;12.50;99.90;;;;;;5075672;28;20818;-80
2023/05/18 06:37:40;;;;;;;1.30;1.20;;;12.70;99.90;;;;;;5075445;28;20437;-81
2023/05/18 06:40:09;;;;;;;2.03;1.07;;;12.90;99.90;;;;;;5075038;28;20973;-82
2023/05/18 06:42:36;;;;;;;0.83;0.77;;;13.10;99.90;;;;;;5074645;28;20493;-81
2023/05/18 06:45:03;;;;;;;4.00;1.10;;;13.30;99.90;;;;;;5074843;28;20473;-81
2023/05/18 06:47:29;;;;;;;1.63;1.40;;;13.50;99.90;;;;;;5075226;28;20436;-81
2023/05/18 06:49:58;;;;;;;1.67;1.10;;;13.60;99.90;;;;;;5075401;28;20445;-81
2023/05/18 06:52:24;;;;;;;1.93;1.03;;;13.80;99.90;;;;;;5075135;28;20441;-81
2023/05/18 06:54:51;;;;;;;1.60;1.37;;;13.90;99.90;;;;;;5074935;28;20465;-81
2023/05/18 06:57:18;;;;;;;0.97;0.97;;;14.00;99.90;;;;;;5075015;28;20465;-82
2023/05/18 06:59:45;;;;;;;2.70;1.10;;;14.10;99.90;;;;;;5074946;28;20441;-82
2023/05/18 07:02:11;;;;;;;2.00;1.27;;;14.40;99.90;;;;;;5074757;28;20482;-82
2023/05/18 07:04:38;;;;;;;2.03;1.00;;;14.60;99.90;;;;;;5075044;28;21007;-82
2023/05/18 07:07:06;;;;;;;2.00;1.07;;;14.90;99.90;;;;;;5075015;28;20519;-82
2023/05/18 07:09:33;;;;;;;0.90;0.90;;;15.10;99.90;;;;;;5074731;28;20450;-82
2023/05/18 07:12:00;;;;;;;4.87;1.17;;;15.50;99.90;;;;;;5074581;28;20887;-82
2023/05/18 07:14:30;;;;;;;2.73;0.90;;;15.90;99.90;;;;;;5074217;28;20981;-82
2023/05/18 07:16:59;;;;;;;2.40;1.40;;;16.30;99.90;;;;;;5074857;28;20445;-82
2023/05/18 07:19:26;;;;;;;5.83;1.40;;;16.50;99.90;;;;;;5074471;28;20448;-82
2023/05/18 07:21:53;;;;;;;2.37;1.20;;;16.50;99.90;;;;;;5074447;28;20470;-82
2023/05/18 07:24:21;;;;;;;2.30;1.00;;;16.70;99.90;;;;;;5074277;28;20477;-82
2023/05/18 07:26:48;;;;;;;3.57;2.17;;;17.10;99.90;;;;;;5074380;28;20458;-82
2023/05/18 07:29:14;;;;;;;1.53;1.43;;;17.60;99.90;;;;;;5074359;28;20465;-82
2023/05/18 07:31:41;;;;;;;4.83;1.43;;;18.00;97.80;;;;;;5074295;28;20447;-80
2023/05/18 07:34:08;;;;;;;1.53;1.10;;;18.60;97.60;;;;;;5074144;28;20465;-82
2023/05/18 07:36:35;;;;;;;4.10;1.80;;;18.80;94.60;;;;;;5074145;28;20448;-81
2023/05/18 07:39:02;;;;;;;2.13;1.10;;;19.10;94.90;;;;;;5074156;28;20506;-81
2023/05/18 07:41:31;;;;;;;3.90;1.80;;;19.80;93.60;;;;;;5074011;28;20534;-82
2023/05/18 07:43:57;;;;;;;3.80;1.17;;;20.60;91.20;;;;;;5073746;28;21037;-82
2023/05/18 07:46:24;;;;;;;1.63;1.40;;;20.80;87.30;;;;;;5074112;28;20461;-81
2023/05/18 07:48:51;;;;;;;1.75;1.00;;;21.50;87.00;;;;;;5073700;28;20954;-82
2023/05/18 07:51:18;;;;;;;1.98;1.33;;;22.60;82.90;;;;;;5073690;28;20202;-82
2023/05/18 07:53:46;;;;;;;1.50;1.40;;;23.70;75.10;;;;;;5073871;28;20237;-81
2023/05/18 07:56:13;;;;;;;2.75;1.63;;;24.40;73.00;;;;;;5073957;28;20226;-82
2023/05/18 07:58:41;;;;;;;1.42;1.27;;;25.00;66.50;;;;;;5073853;28;20202;-82
2023/05/18 08:01:07;;;;;;;4.10;1.42;;;25.20;64.10;;;;;;5073761;28;20203;-82
2023/05/18 08:03:34;;;;;;;1.30;1.20;;;25.50;61.80;;;;;;5073222;28;20611;-83
2023/05/18 08:06:01;;;;;;;3.08;1.50;;;25.70;59.80;;;;;;5073689;28;20203;-82
2023/05/18 08:08:28;;;;;;;4.03;3.30;;;25.90;59.00;;;;;;5073671;28;20302;-81
2023/05/18 08:10:55;;;;;;;1.30;1.15;;;25.60;58.00;;;;;;5073720;28;20270;-82
2023/05/18 08:13:22;;;;;;;2.72;1.45;;;24.70;58.40;;;;;;5073254;28;20729;-82
2023/05/18 08:15:50;;;;;;;1.48;1.23;;;23.60;60.20;;;;;;5073523;28;20213;-82
2023/05/18 08:18:16;;;;;;;1.50;1.40;;;22.80;62.50;;;;;;5073608;28;20205;-82
2023/05/18 08:20:43;;;;;;;2.40;1.85;;;22.10;63.90;;;;;;5073521;28;20203;-82
2023/05/18 08:23:10;;;;;;;1.83;1.73;;;21.30;65.30;;;;;;5073384;28;20252;-82
2023/05/18 08:25:37;;;;;;;1.33;1.17;;;20.40;66.10;;;;;;5073500;28;20502;-81
2023/05/18 08:28:04;;;;;;;2.83;1.97;;;19.80;69.10;;;;;;5073169;28;20967;-81
2023/05/18 08:30:31;;;;;;;2.07;1.73;;;19.30;68.40;;;;;;5073468;28;20440;-82
2023/05/18 08:32:59;;;;;;;1.47;1.30;;;19.00;70.50;;;;;;5073293;28;20471;-82
2023/05/18 08:35:26;;;;;;;5.10;1.83;;;18.80;72.00;;;;;;5073036;28;20539;-82
2023/05/18 08:37:52;;;;;;;5.73;1.67;;;18.70;71.30;;;;;;5073303;28;20442;-82
2023/05/18 08:40:19;;;;;;;2.23;1.73;;;18.60;71.10;;;;;;5073266;28;20457;-81
2023/05/18 08:42:51;;;;;;;1.67;1.30;;;18.30;72.80;;;;;;5073115;28;20484;-82
2023/05/18 08:45:27;;;;;;;2.43;1.40;;;18.00;73.20;;;;;;5073305;28;20433;-81
2023/05/18 08:47:56;;;;;;;2.57;1.73;;;18.00;73.60;;;;;;5073307;28;20441;-82
2023/05/18 08:50:26;;;;;;;1.97;1.80;;;17.80;74.10;;;;;;5073206;28;20448;-81
2023/05/18 08:52:56;;;;;;;3.97;1.80;;;17.50;76.10;;;;;;5073168;28;20431;-82
2023/05/18 08:55:23;;;;;;;6.10;1.90;;;17.50;76.10;;;;;;5073100;28;20464;-82
2023/05/18 08:57:55;;;;;;;4.93;2.30;;;17.40;75.60;;;;;;5073094;28;20461;-82
2023/05/18 09:00:23;;;;;;;2.83;2.23;;;17.20;76.00;;;;;;5073202;28;20508;-82
2023/05/18 09:02:50;;;;;;;3.10;1.97;;;17.10;77.90;;;;;;5072580;28;20554;-82
2023/05/18 09:05:18;;;;;;;2.30;2.10;;;17.30;76.70;;;;;;5073107;28;20452;-81
2023/05/18 09:07:47;;;;;;;1.63;1.37;;;17.40;78.10;;;;;;5076246;28;20456;-82
2023/05/18 09:10:15;;;;;;;1.53;1.23;;;17.50;77.30;;;;;;5077065;28;20453;-81
2023/05/18 09:12:45;;;;;;;1.73;1.50;;;17.80;81.30;;;;;;5076919;28;20446;-82
2023/05/18 09:15:13;;;;;;;2.03;1.40;;;18.00;77.80;;;;;;5077163;28;20928;-82
2023/05/18 09:17:40;;;;;;;10.33;1.63;;;17.90;74.70;;;;;;5076562;28;20968;-81
2023/05/18 09:20:08;;;;;;;5.93;1.63;;;17.60;77.40;;;;;;5076065;28;20448;-82
2023/05/18 09:22:35;;;;;;;1.37;1.20;;;17.30;76.50;;;;;;5076271;28;20481;-82
2023/05/18 09:25:05;;;;;;;2.07;1.20;;;17.30;76.30;;;;;;5076625;28;20469;-82
2023/05/18 09:27:32;;;;;;;1.80;1.70;;;17.50;79.30;;;;;;5076679;28;20516;-82
2023/05/18 09:29:59;;;;;;;2.87;1.90;;;17.50;77.50;;;;;;5076631;28;20837;-82
2023/05/18 09:32:26;;;;;;;4.70;1.20;;;17.40;78.30;;;;;;5076596;28;20449;-82
2023/05/18 09:34:54;;;;;;;1.10;1.00;;;17.20;76.90;;;;;;5076142;28;20985;-82
2023/05/18 09:37:21;;;;;;;2.87;1.87;;;17.20;77.10;;;;;;5076518;28;20926;-81
2023/05/18 09:39:58;;;;;;;1.47;1.37;;;17.20;76.40;;;;;;5076467;28;20452;-82
2023/05/18 09:42:35;;;;;;;2.80;1.57;;;17.40;78.50;;;;;;5076399;28;20461;-82
2023/05/18 09:45:02;;;;;;;1.80;1.17;;;17.60;77.90;;;;;;5076363;28;20465;-82
2023/05/18 09:47:29;;;;;;;3.80;1.37;;;17.70;76.20;;;;;;5076247;28;20948;-80
2023/05/18 09:49:57;;;;;;;1.10;0.90;;;17.80;76.70;;;;;;5075886;28;20460;-82
2023/05/18 09:52:23;;;;;;;1.57;1.33;;;17.80;75.80;;;;;;5076201;28;20448;-81
2023/05/18 09:54:58;;;;;;;1.63;1.53;;;17.80;77.00;;;;;;5076190;28;20468;-81
2023/05/18 09:57:25;;;;;;;2.00;1.67;;;17.90;75.90;;;;;;5076198;28;20433;-81
2023/05/18 09:59:56;;;;;;;3.40;1.63;;;18.00;75.80;;;;;;5076386;28;20445;-82
2023/05/18 10:02:25;;;;;;;1.30;1.20;;;18.10;76.30;;;;;;5075548;28;20500;-81
2023/05/18 10:04:52;;;;;;;1.20;1.10;;;17.90;73.40;;;;;;5075951;28;20474;-81
2023/05/18 10:07:19;;;;;;;2.07;1.20;;;17.80;73.80;;;;;;5076046;28;20450;-81
2023/05/18 10:09:46;;;;;;;1.10;1.00;;;17.70;75.00;;;;;;5075594;28;20940;-81
2023/05/18 10:12:14;;;;;;;1.93;1.83;;;17.60;74.40;;;;;;5075564;28;20981;-81
2023/05/18 10:14:41;;;;;;;5.27;1.30;;;17.30;75.40;;;;;;5075769;28;20469;-81
2023/05/18 10:17:11;;;;;;;2.10;1.50;;;17.10;74.80;;;;;;5075409;28;20442;-81
2023/05/18 10:19:40;;;;;;;3.33;1.70;;;17.00;74.90;;;;;;5074896;28;20457;-81
2023/05/18 10:22:08;;;;;;;1.43;1.33;;;17.00;76.80;;;;;;5075634;28;20472;-81
2023/05/18 10:24:38;;;;;;;1.63;1.50;;;17.10;76.80;;;;;;5075619;28;20837;-81
2023/05/18 10:27:08;;;;;;;4.30;1.23;;;17.30;76.50;;;;;;5075964;28;20450;-81
2023/05/18 10:29:37;;;;;;;1.63;1.37;;;17.40;76.00;;;;;;5075635;28;20430;-81
2023/05/18 10:32:04;;;;;;;2.33;1.73;;;17.50;74.20;;;;;;5075515;28;20445;-81
2023/05/18 10:34:33;;;;;;;1.70;1.60;;;17.30;74.20;;;;;;5075402;28;20465;-82
2023/05/18 10:37:03;;;;;;;7.00;1.90;;;17.30;74.70;;;;;;5075454;28;20462;-82
2023/05/18 10:39:31;;;;;;;2.40;1.00;;;17.30;75.00;;;;;;5076463;28;20845;-81
2023/05/18 10:42:00;;;;;;;3.80;1.90;;;17.30;75.10;;;;;;5075280;28;20449;-81
2023/05/18 10:44:27;;;;;;;1.10;0.97;;;17.30;74.70;;;;;;5075277;28;20469;-82
2023/05/18 10:46:55;;;;;;;1.30;1.20;;;17.30;74.00;;;;;;5074926;28;20453;-81
2023/05/18 10:49:24;;;;;;;1.80;1.47;;;17.20;73.90;;;;;;5075152;28;20461;-82
2023/05/18 10:51:53;;;;;;;0.80;0.80;;;17.20;73.60;;;;;;5075103;28;20488;-81
2023/05/18 10:54:22;;;;;;;2.13;1.40;;;17.20;74.60;;;;;;5075074;28;20466;-81
2023/05/18 10:56:52;;;;;;;2.67;1.30;;;17.30;74.40;;;;;;5075024;28;20454;-80
2023/05/18 10:59:21;;;;;;;1.70;1.23;;;17.60;75.70;;;;;;5074991;28;20438;-80
2023/05/18 11:01:51;;;;;;;5.77;1.77;;;18.00;74.60;;;;;;5074637;28;20445;-81
2023/05/18 11:04:25;;;;;;;1.37;1.03;;;18.40;73.50;;;;;;5074484;28;20485;-80
2023/05/18 11:06:58;;;;;;;1.93;1.17;;;18.70;72.10;;;;;;5074838;28;20437;-81
2023/05/18 11:09:26;;;;;;;3.67;1.63;;;18.90;73.20;;;;;;5074777;28;20453;-81
2023/05/18 11:11:54;;;;;;;2.03;1.60;;;18.70;71.00;;;;;;5074693;28;20453;-81
2023/05/18 11:14:29;;;;;;;0.93;0.90;;;18.40;72.10;;;;;;5074623;28;20512;-81
2023/05/18 11:17:16;;;;;;;3.80;1.80;;;18.10;71.80;;;;;;5074651;28;20547;-82
2023/05/18 11:20:14;;;;;;;8.20;1.20;;;18.00;73.00;;;;;;5074610;28;20433;-82
2023/05/18 11:22:45;;;;;;;1.90;1.23;;;17.90;73.90;;;;;;5074467;28;20465;-82
2023/05/18 11:25:45;;;;;;;2.13;1.20;;;17.80;73.00;;;;;;5074505;28;20434;-82
2023/05/18 11:28:13;;;;;;;1.40;1.30;;;17.50;72.60;;;;;;5074355;28;20452;-82
2023/05/18 11:31:00;;;;;;;1.23;1.13;;;17.40;72.50;;;;;;5073640;28;20536;-82
2023/05/18 11:33:29;;;;;;;7.80;1.70;;;17.50;73.60;;;;;;5069333;28;20495;-82
2023/05/18 11:36:02;;;;;;;1.30;1.20;;;17.70;71.40;;;;;;5073954;28;20434;-82
2023/05/18 11:38:51;;;;;;;2.53;1.20;;;17.50;71.30;;;;;;5074790;28;20430;-82
2023/05/18 11:41:40;;;;;;;2.10;0.97;;;17.30;72.10;;;;;;5074226;28;20429;-82
2023/05/18 11:44:16;;;;;;;1.13;1.00;;;17.20;72.40;;;;;;5073742;28;20998;-82
2023/05/18 11:46:54;;;;;;;2.67;1.50;;;17.20;72.90;;;;;;5073856;28;20480;-82
2023/05/18 11:49:23;;;;;;;8.10;1.07;;;17.30;73.20;;;;;;5073665;28;20937;-82
2023/05/18 11:52:07;;;;;;;3.00;1.10;;;17.40;71.80;;;;;;5073700;28;20448;-82
2023/05/18 11:54:46;;;;;;;1.57;1.47;;;17.30;70.40;;;;;;5074052;28;20461;-83
2023/05/18 11:57:15;;;;;;;5.27;1.23;;;17.20;72.10;;;;;;5073892;28;20438;-82
2023/05/18 11:59:42;;;;;;;1.47;1.20;;;17.10;72.00;;;;;;5073504;28;20938;-83
2023/05/18 12:02:11;;;;;;;7.40;1.00;;;16.90;71.20;;;;;;5073369;28;20961;-82
2023/05/18 12:04:46;;;;;;;1.13;1.03;;;16.70;72.50;;;;;;5073554;28;20492;-82
2023/05/18 12:07:14;;;;;;;1.80;1.30;;;16.80;72.00;;;;;;5073727;28;20440;-82
2023/05/18 12:09:44;;;;;;;3.50;1.30;;;16.90;71.90;;;;;;5073723;28;20529;-82
2023/05/18 12:12:12;;;;;;;1.37;1.03;;;16.90;72.20;;;;;;5073718;28;20540;-82
2023/05/18 12:14:42;;;;;;;1.37;1.00;;;16.90;71.90;;;;;;5073223;28;20907;-82
2023/05/18 12:17:09;;;;;;;2.40;1.00;;;16.80;71.60;;;;;;5073614;28;20495;-82
2023/05/18 12:19:42;;;;;;;1.30;1.20;;;16.80;73.30;;;;;;5073607;28;20550;-82
2023/05/18 12:22:09;;;;;;;3.70;1.60;;;16.90;79.10;;;;;;5073319;28;20437;-82
2023/05/18 12:24:37;;;;;;;1.07;1.07;;;17.10;74.40;;;;;;5073176;28;20489;-83
2023/05/18 12:27:06;;;;;;;1.73;1.10;;;17.10;71.10;;;;;;5073453;28;20449;-82
2023/05/18 12:29:33;;;;;;;1.07;1.00;;;17.00;70.40;;;;;;5073593;28;20454;-83
2023/05/18 12:32:05;;;;;;;2.53;1.27;;;16.90;71.10;;;;;;5073689;28;20445;-83
2023/05/18 12:34:32;;;;;;;1.17;1.07;;;16.90;70.50;;;;;;5073054;28;20465;-82
2023/05/18 12:36:59;;;;;;;2.57;0.90;;;16.90;72.00;;;;;;5073048;28;20975;-82
2023/05/18 12:39:25;;;;;;;2.90;0.90;;;17.00;71.20;;;;;;5073351;28;20438;-83
2023/05/18 12:41:53;;;;;;;3.13;1.20;;;17.00;72.40;;;;;;5072630;28;20448;-82
2023/05/18 12:44:21;;;;;;;1.13;1.03;;;17.10;71.20;;;;;;5073152;28;20481;-81
2023/05/18 12:46:48;;;;;;;4.37;1.93;;;17.00;70.50;;;;;;5073286;28;20457;-81
2023/05/18 12:49:17;;;;;;;1.07;1.03;;;16.80;70.70;;;;;;5073282;28;20512;-81
2023/05/18 12:51:44;;;;;;;2.77;1.10;;;16.80;71.30;;;;;;5073253;28;20824;-80
2023/05/18 12:54:11;;;;;;;1.03;0.70;;;17.00;72.80;;;;;;5072911;28;20465;-82
2023/05/18 12:56:51;;;;;;;8.60;1.50;;;17.10;70.90;;;;;;5072877;28;20825;-80
2023/05/18 12:59:19;;;;;;;0.70;0.70;;;17.20;71.60;;;;;;5073175;28;20449;-81